Terminal Aerodrome Forecast
Issued by NWS

Home | Current Version | Previous Version | Graphics & Text | Print | Product List | Glossary On
Versions: 1 2 3 4 5 6 7 8 9 10 11 12 13 14 15 16 17 18 19 20 21 22 23 24 25 26 27 28 29 30
000
FTUS43 KLOT 192335
TAFORD
TAF
KORD 192335Z 2000/2106 04014G21KT P6SM BKN015 OVC025
     FM200900 09012G18KT P6SM BKN007 OVC012
     FM201200 08012G18KT 6SM -SHRA VCTS OVC007CB
      TEMPO 2013/2016 2SM TSRA BR
     FM201700 12012G18KT 6SM BR BKN009 OVC015
     FM202100 13012KT P6SM SCT015 BKN025 PROB30 2021/2101 3SM TSRA
      OVC025CB
     FM210100 16010KT 6SM BR VCSH BKN025=

USA.gov is the U.S. government's official web portal to all federal, state and local government web resources and services.